Time;durP1;ratioP1;P1;durP2;ratioP2;P2;SDS_P1;SDS_P2;PMS_P1;PMS_P2;Temp;Humidity;BMP_temperature;BMP_pressure;BME280_temperature;BME280_humidity;BME280_pressure;Samples;Min_cycle;Max_cycle;Signal;HPM_P1;HPM_P2
2023/06/26 00:00:08;;;;;;;;;;;;;;;22.29;53.85;99744.28;1087033;46;19980;-81
2023/06/26 00:01:12;;;;;;;;;;;;;;;22.25;53.80;99740.38;1087154;54;19946;-82
2023/06/26 00:02:13;;;;;;;;;;;;;;;22.19;53.79;99738.59;1086935;47;21183;-84
2023/06/26 00:03:17;;;;;;;;;;;;;;;22.15;54.38;99740.09;1086220;47;20007;-84
2023/06/26 00:04:18;;;;;;;;;;;;;;;22.09;54.31;99738.28;1087179;54;19942;-83
2023/06/26 00:05:21;;;;;;;;;;;;;;;22.10;53.95;99734.50;1090103;39;20842;-83
2023/06/26 00:06:24;;;;;;;;;;;;;;;22.05;54.04;99737.06;1087285;54;19978;-82
2023/06/26 00:07:27;;;;;;;;;;;;;;;22.00;54.21;99734.22;1087008;54;19973;-84
2023/06/26 00:08:28;;;;;;;;;;;;;;;22.04;53.95;99741.69;1087070;54;19994;-84
2023/06/26 00:09:32;;;;;;;;;;;;;;;22.05;53.83;99737.06;1087241;54;19942;-84
2023/06/26 00:10:33;;;;;;;;;;;;;;;22.00;53.93;99737.75;1087175;54;19942;-85
2023/06/26 00:11:36;;;;;;;;;;;;;;;21.96;53.99;99734.66;1087237;54;19950;-83
2023/06/26 00:12:37;;;;;;;;;;;;;;;21.94;54.17;99741.38;1086923;47;19950;-85
2023/06/26 00:13:40;;;;;;;;;;;;;;;21.92;54.22;99738.88;1086421;54;19946;-79
2023/06/26 00:14:44;;;;;;;;;;;;;;;21.88;54.43;99739.56;1086435;47;19990;-80
2023/06/26 00:15:47;;;;;;;;;;;;;;;21.91;54.34;99734.53;1086446;54;19973;-79
2023/06/26 00:16:49;;;;;;;;;;;;;;;21.94;54.55;99735.94;1086682;54;19968;-82
2023/06/26 00:17:52;;;;;;;;;;;;;;;21.87;54.63;99741.47;1087424;54;19981;-82
2023/06/26 00:18:53;;;;;;;;;;;;;;;21.81;54.70;99742.38;1087285;54;20013;-84
2023/06/26 00:19:56;;;;;;;;;;;;;;;21.80;54.91;99743.44;1087469;54;19969;-85
2023/06/26 00:20:59;;;;;;;;;;;;;;;21.79;54.83;99742.59;1087668;54;19946;-82
2023/06/26 00:22:03;;;;;;;;;;;;;;;21.77;54.77;99747.41;1087553;54;19927;-83
2023/06/26 00:23:07;;;;;;;;;;;;;;;21.73;54.95;99748.94;1087678;54;19950;-82
2023/06/26 00:24:10;;;;;;;;;;;;;;;21.72;55.33;99743.75;1087445;47;19951;-84
2023/06/26 00:25:11;;;;;;;;;;;;;;;21.77;55.05;99746.59;1087365;47;19942;-83
2023/06/26 00:26:15;;;;;;;;;;;;;;;21.74;55.15;99741.59;1087280;54;19998;-83
2023/06/26 00:27:15;;;;;;;;;;;;;;;21.77;54.84;99736.53;1088303;39;20125;-83
2023/06/26 00:28:20;;;;;;;;;;;;;;;21.80;54.66;99741.53;1087209;47;19954;-84
2023/06/26 00:29:21;;;;;;;;;;;;;;;21.82;54.84;99738.59;1087234;47;20002;-83
2023/06/26 00:30:27;;;;;;;;;;;;;;;21.78;54.70;99742.81;1087488;47;19942;-85
2023/06/26 00:31:28;;;;;;;;;;;;;;;21.77;55.09;99744.69;1087199;47;19943;-82
2023/06/26 00:32:31;;;;;;;;;;;;;;;21.73;55.03;99740.78;1087153;47;20565;-83
2023/06/26 00:33:32;;;;;;;;;;;;;;;21.73;54.87;99737.22;1086849;47;19943;-84
2023/06/26 00:34:35;;;;;;;;;;;;;;;21.69;55.02;99753.16;1086740;47;19943;-81
2023/06/26 00:35:36;;;;;;;;;;;;;;;21.71;55.25;99736.63;1086953;47;19943;-82
2023/06/26 00:36:43;;;;;;;;;;;;;;;21.77;54.75;99733.00;1087261;54;20897;-85
2023/06/26 00:37:44;;;;;;;;;;;;;;;21.81;54.84;99732.31;1087377;47;20018;-85
2023/06/26 00:38:47;;;;;;;;;;;;;;;21.78;54.65;99730.03;1087192;47;19942;-83
2023/06/26 00:39:48;;;;;;;;;;;;;;;21.78;54.82;99738.19;1087291;54;19942;-85
2023/06/26 00:40:51;;;;;;;;;;;;;;;21.84;54.65;99731.03;1087110;47;19965;-83
2023/06/26 00:41:53;;;;;;;;;;;;;;;21.87;54.61;99736.03;1087250;54;19942;-85
2023/06/26 00:42:57;;;;;;;;;;;;;;;21.87;54.77;99736.03;1086838;47;19981;-84
2023/06/26 00:43:57;;;;;;;;;;;;;;;21.89;54.59;99728.47;1086946;47;20552;-83
2023/06/26 00:45:01;;;;;;;;;;;;;;;21.95;54.63;99729.44;1087164;47;19951;-85
2023/06/26 00:46:05;;;;;;;;;;;;;;;21.94;54.52;99725.06;1086940;47;20654;-82
2023/06/26 00:47:08;;;;;;;;;;;;;;;21.95;54.22;99729.44;1086642;46;19962;-83
2023/06/26 00:48:11;;;;;;;;;;;;;;;21.96;54.65;99736.56;1087190;47;19939;-85
2023/06/26 00:49:15;;;;;;;;;;;;;;;21.93;54.55;99731.56;1087342;47;19965;-86
2023/06/26 00:50:17;;;;;;;;;;;;;;;21.86;55.08;99726.19;1087417;46;19943;-84
2023/06/26 00:51:21;;;;;;;;;;;;;;;21.78;55.08;99732.75;1087309;46;20526;-84
2023/06/26 00:52:23;;;;;;;;;;;;;;;21.72;55.29;99741.84;1087506;46;19942;-85
2023/06/26 00:53:28;;;;;;;;;;;;;;;21.72;55.40;99738.28;1087386;46;19943;-85
2023/06/26 00:54:29;;;;;;;;;;;;;;;21.72;55.43;99741.00;1087364;47;19950;-85
2023/06/26 00:55:32;;;;;;;;;;;;;;;21.74;55.39;99734.28;1087348;54;19942;-85
2023/06/26 00:56:34;;;;;;;;;;;;;;;21.76;55.12;99734.91;1087330;47;19946;-85
2023/06/26 00:57:37;;;;;;;;;;;;;;;21.70;55.42;99734.97;1087529;47;19950;-83
2023/06/26 00:58:38;;;;;;;;;;;;;;;21.70;55.23;99724.09;1087219;47;19942;-85
2023/06/26 00:59:41;;;;;;;;;;;;;;;21.61;55.44;99737.97;1086795;54;19958;-83
2023/06/26 01:00:45;;;;;;;;;;;;;;;21.50;55.59;99725.91;1086939;46;19966;-84
2023/06/26 01:01:51;;;;;;;;;;;;;;;21.50;55.70;99730.53;1086656;47;20128;-84
2023/06/26 01:02:52;;;;;;;;;;;;;;;21.47;55.87;99737.25;1086746;54;19994;-82
2023/06/26 01:03:57;;;;;;;;;;;;;;;21.49;55.58;99720.72;1087011;47;19977;-81
2023/06/26 01:05:00;;;;;;;;;;;;;;;21.50;55.46;99725.09;1086760;47;19965;-82
2023/06/26 01:06:04;;;;;;;;;;;;;;;21.49;55.61;99726.16;1086581;47;19950;-80
2023/06/26 01:07:07;;;;;;;;;;;;;;;21.45;55.97;99724.91;1086839;54;19994;-85
2023/06/26 01:13:03;;;;;;;;;;;;;;;21.38;56.51;99726.88;1086105;54;19942;-85
2023/06/26 01:14:04;;;;;;;;;;;;;;;21.37;56.91;99727.94;1087311;54;19965;-85
2023/06/26 01:15:08;;;;;;;;;;;;;;;21.32;56.90;99725.88;1087222;47;20006;-86
2023/06/26 01:16:08;;;;;;;;;;;;;;;21.29;56.86;99724.44;1087351;54;19974;-86
2023/06/26 01:17:15;;;;;;;;;;;;;;;21.29;57.39;99729.88;1087369;47;19974;-84
2023/06/26 01:18:16;;;;;;;;;;;;;;;21.25;57.54;99723.25;1087174;54;19963;-81
2023/06/26 01:19:31;;;;;;;;;;;;;;;21.22;57.59;99722.84;1086736;46;19962;-85
2023/06/26 01:20:36;;;;;;;;;;;;;;;21.23;57.73;99724.50;1087479;54;19969;-85
2023/06/26 01:21:42;;;;;;;;;;;;;;;21.23;57.75;99714.47;1087381;46;20010;-87
2023/06/26 01:22:47;;;;;;;;;;;;;;;21.20;57.88;99723.06;1086542;54;19969;-82
2023/06/26 01:23:59;;;;;;;;;;;;;;;21.22;57.92;99726.41;1086239;47;20021;-84
2023/06/26 01:25:09;;;;;;;;;;;;;;;21.22;57.84;99720.97;1086719;47;19949;-81
2023/06/26 01:26:18;;;;;;;;;;;;;;;21.22;58.22;99722.84;1086845;47;19938;-82
2023/06/26 01:27:21;;;;;;;;;;;;;;;21.26;58.10;99726.78;1087142;47;19946;-84
2023/06/26 01:28:27;;;;;;;;;;;;;;;21.25;58.17;99717.81;1086674;47;19950;-84
2023/06/26 01:29:28;;;;;;;;;;;;;;;21.25;58.28;99720.53;1086625;54;19969;-83
2023/06/26 01:30:32;;;;;;;;;;;;;;;21.25;58.01;99715.09;1086892;54;20002;-82
2023/06/26 01:31:36;;;;;;;;;;;;;;;21.25;58.30;99714.25;1087989;31;20661;-81
2023/06/26 01:32:38;;;;;;;;;;;;;;;21.29;58.41;99719.00;1086801;54;20497;-83
2023/06/26 01:33:42;;;;;;;;;;;;;;;21.33;58.27;99709.38;1086656;47;19977;-83
2023/06/26 01:34:44;;;;;;;;;;;;;;;21.35;58.00;99706.41;1086157;47;19973;-85
2023/06/26 01:35:47;;;;;;;;;;;;;;;21.24;58.30;99710.72;1087652;39;20449;-82
2023/06/26 01:36:48;;;;;;;;;;;;;;;21.21;58.82;99713.03;1086990;46;19942;-83
2023/06/26 01:37:51;;;;;;;;;;;;;;;21.21;58.96;99710.31;1087070;54;19950;-84
2023/06/26 01:38:52;;;;;;;;;;;;;;;21.20;58.46;99714.91;1087048;47;19942;-85
2023/06/26 01:39:56;;;;;;;;;;;;;;;21.11;59.33;99702.66;1086886;54;19951;-81
2023/06/26 01:40:57;;;;;;;;;;;;;;;21.03;59.45;99701.03;1086790;47;19939;-83
2023/06/26 01:42:03;;;;;;;;;;;;;;;21.01;59.54;99703.19;1086582;54;19970;-82
2023/06/26 01:43:05;;;;;;;;;;;;;;;20.98;59.73;99704.44;1087116;54;19942;-84
2023/06/26 01:44:18;;;;;;;;;;;;;;;20.95;59.54;99696.75;1086645;47;19973;-84
2023/06/26 01:45:22;;;;;;;;;;;;;;;20.96;59.54;99703.84;1086547;54;20018;-83
2023/06/26 01:46:27;;;;;;;;;;;;;;;20.98;59.56;99707.16;1086659;47;19990;-81
2023/06/26 01:47:31;;;;;;;;;;;;;;;20.98;59.93;99706.31;1090446;39;20314;-83
2023/06/26 01:48:37;;;;;;;;;;;;;;;20.96;59.99;99708.44;1086484;54;19950;-83
2023/06/26 01:49:42;;;;;;;;;;;;;;;20.96;59.82;99706.56;1086485;47;19962;-84
2023/06/26 01:50:46;;;;;;;;;;;;;;;20.93;60.16;99698.00;1086656;54;19951;-86
2023/06/26 01:51:51;;;;;;;;;;;;;;;20.90;59.96;99701.19;1088499;31;20443;-82
2023/06/26 01:52:58;;;;;;;;;;;;;;;20.86;60.23;99701.59;1086683;54;19942;-83
2023/06/26 01:54:01;;;;;;;;;;;;;;;20.89;60.14;99700.31;1086988;47;19962;-83
2023/06/26 01:55:06;;;;;;;;;;;;;;;20.87;60.17;99699.75;1087176;54;19950;-83
2023/06/26 01:56:09;;;;;;;;;;;;;;;20.91;59.59;99698.22;1086689;47;19950;-77
2023/06/26 01:57:18;;;;;;;;;;;;;;;20.95;59.81;99690.47;1086176;54;19944;-78
2023/06/26 01:58:20;;;;;;;;;;;;;;;20.99;59.82;99687.06;1086024;47;19943;-78
2023/06/26 01:59:25;;;;;;;;;;;;;;;21.04;59.95;99700.00;1086168;47;19942;-79
2023/06/26 02:00:26;;;;;;;;;;;;;;;21.09;59.37;99702.03;1086092;54;20002;-78
2023/06/26 02:01:30;;;;;;;;;;;;;;;21.14;59.41;99696.78;1086294;54;19955;-81
2023/06/26 06:32:52;;;;;;;;;;;;;;;23.01;51.86;99739.09;1067791;54;20852;31
2023/06/26 06:35:14;;;;;;;;;;;;;;;23.12;51.45;99724.66;1068142;54;19946;31
2023/06/26 06:36:16;;;;;;;;;;;;;;;23.17;51.62;99732.94;1068025;54;20976;31
2023/06/26 06:38:24;;;;;;;;;;;;;;;23.23;51.35;99730.41;1067804;54;20005;31
2023/06/26 06:39:27;;;;;;;;;;;;;;;23.29;50.74;99738.44;1067855;47;19953;31
2023/06/26 06:40:33;;;;;;;;;;;;;;;23.34;50.83;99729.56;1067818;47;20879;31
2023/06/26 06:41:36;;;;;;;;;;;;;;;23.39;50.87;99729.69;1067932;47;20832;31
2023/06/26 06:42:45;;;;;;;;;;;;;;;23.44;50.37;99727.06;1067702;46;20005;31
2023/06/26 06:43:48;;;;;;;;;;;;;;;23.43;49.19;99725.41;1067600;47;21112;31
2023/06/26 06:44:53;;;;;;;;;;;;;;;23.45;49.25;99728.72;1067734;54;19986;31
2023/06/26 06:45:55;;;;;;;;;;;;;;;23.47;49.07;99729.31;1067957;47;20835;31
2023/06/26 06:47:01;;;;;;;;;;;;;;;23.54;49.18;99731.94;1068079;46;20712;31
2023/06/26 06:48:09;;;;;;;;;;;;;;;23.63;48.67;99726.94;1067932;46;20947;31
2023/06/26 06:49:12;;;;;;;;;;;;;;;23.73;48.46;99718.97;1067784;54;19950;31
2023/06/26 06:50:17;;;;;;;;;;;;;;;23.80;48.21;99727.88;1067480;47;19942;31
2023/06/26 06:51:20;;;;;;;;;;;;;;;23.89;47.75;99724.78;1068948;39;22092;31
2023/06/26 06:52:27;;;;;;;;;;;;;;;24.00;47.80;99723.91;1067666;46;20842;31
2023/06/26 06:54:32;;;;;;;;;;;;;;;24.08;47.53;99726.28;1068610;39;22124;31
2023/06/26 06:55:34;;;;;;;;;;;;;;;24.00;46.98;99729.38;1068853;39;22198;31
2023/06/26 06:56:40;;;;;;;;;;;;;;;23.97;47.08;99721.69;1075300;46;20026;-83
2023/06/26 06:57:42;;;;;;;;;;;;;;;24.12;47.05;99721.19;1068303;47;19950;31
2023/06/26 06:58:46;;;;;;;;;;;;;;;24.23;46.98;99722.19;1074203;39;20681;31
2023/06/26 06:59:48;;;;;;;;;;;;;;;24.30;46.57;99728.34;1071928;47;20619;31
2023/06/26 07:02:57;;;;;;;;;;;;;;;24.57;46.01;99717.66;1068144;47;20928;31
2023/06/26 07:05:09;;;;;;;;;;;;;;;24.64;44.73;99720.25;1085775;54;19926;-86
2023/06/26 07:06:14;;;;;;;;;;;;;;;24.79;44.67;99718.88;1068322;47;19943;31
2023/06/26 07:09:23;;;;;;;;;;;;;;;25.00;43.16;99712.69;1068092;54;19997;31
2023/06/26 07:10:28;;;;;;;;;;;;;;;24.90;43.04;99712.50;1072379;39;20571;31
2023/06/26 07:11:30;;;;;;;;;;;;;;;25.07;42.98;99710.59;1067562;47;19992;31
2023/06/26 07:12:36;;;;;;;;;;;;;;;25.16;42.85;99705.56;1067300;54;20970;31
2023/06/26 07:14:50;;;;;;;;;;;;;;;25.13;41.73;99703.31;1067288;54;20722;31
2023/06/26 07:17:02;;;;;;;;;;;;;;;25.27;41.77;99708.44;1067369;47;19947;31
2023/06/26 07:20:17;;;;;;;;;;;;;;;25.53;41.28;99710.50;1071272;39;21375;31
2023/06/26 07:22:28;;;;;;;;;;;;;;;25.72;41.10;99714.81;1080092;54;20005;-85
2023/06/26 07:24:41;;;;;;;;;;;;;;;25.77;40.94;99707.50;1087924;54;20314;-86
2023/06/26 07:29:10;;;;;;;;;;;;;;;26.21;39.92;99711.38;1067681;47;20359;31
2023/06/26 07:30:11;;;;;;;;;;;;;;;26.28;40.18;99712.78;1075917;47;20743;31
2023/06/26 07:31:17;;;;;;;;;;;;;;;26.31;40.07;99717.78;1077075;47;20923;31
2023/06/26 07:34:32;;;;;;;;;;;;;;;26.37;39.82;99709.59;1067553;54;20710;31
2023/06/26 07:35:34;;;;;;;;;;;;;;;26.55;39.66;99711.97;1067841;54;20822;31
2023/06/26 07:36:43;;;;;;;;;;;;;;;26.66;39.25;99706.59;1068963;39;22174;31
2023/06/26 07:37:51;;;;;;;;;;;;;;;26.75;39.23;99699.53;1072793;47;19954;-88
2023/06/26 07:38:57;;;;;;;;;;;;;;;26.67;39.21;99697.28;1068813;47;19976;-82
2023/06/26 07:41:18;;;;;;;;;;;;;;;26.64;39.25;99704.13;1068518;54;19950;31
2023/06/26 07:42:22;;;;;;;;;;;;;;;26.75;39.03;99710.50;1067981;54;19946;31
2023/06/26 07:43:26;;;;;;;;;;;;;;;26.76;39.22;99701.19;1072987;47;19946;-84
2023/06/26 07:45:46;;;;;;;;;;;;;;;26.68;39.15;99698.94;1073768;54;21222;-84
2023/06/26 07:46:49;;;;;;;;;;;;;;;26.75;39.24;99707.78;1072213;54;20837;31
2023/06/26 07:49:02;;;;;;;;;;;;;;;26.79;39.23;99706.19;1072196;54;20005;31
2023/06/26 07:50:06;;;;;;;;;;;;;;;26.76;39.58;99709.44;1086496;47;19945;31
2023/06/26 07:52:26;;;;;;;;;;;;;;;26.86;39.33;99706.81;1104325;39;21284;31
2023/06/26 07:53:27;;;;;;;;;;;;;;;27.08;38.72;99705.88;1077761;47;20404;-85
2023/06/26 07:54:33;;;;;;;;;;;;;;;27.29;38.64;99701.38;1079082;54;21449;31
2023/06/26 07:55:36;;;;;;;;;;;;;;;27.42;38.60;99702.00;1067399;47;20057;31
2023/06/26 07:57:43;;;;;;;;;;;;;;;27.52;38.45;99708.38;1067643;54;22062;31
2023/06/26 07:59:49;;;;;;;;;;;;;;;27.74;38.03;99712.91;1067978;47;21147;31
2023/06/26 08:00:54;;;;;;;;;;;;;;;27.70;37.92;99707.13;1068026;54;20926;31
2023/06/26 08:01:57;;;;;;;;;;;;;;;27.85;37.58;99706.38;1067559;47;19947;31
2023/06/26 08:05:09;;;;;;;;;;;;;;;28.30;37.40;99700.50;1088787;39;20225;-86
2023/06/26 08:07:19;;;;;;;;;;;;;;;28.44;37.19;99692.53;1067034;54;20012;31
2023/06/26 08:08:21;;;;;;;;;;;;;;;28.44;37.21;99696.09;1082098;47;20952;31
2023/06/26 08:10:27;;;;;;;;;;;;;;;28.69;36.74;99691.75;1067478;54;20883;31
2023/06/26 08:11:33;;;;;;;;;;;;;;;28.68;36.43;99695.59;1067569;54;19955;31
2023/06/26 08:12:40;;;;;;;;;;;;;;;28.77;36.69;99696.72;1067355;47;19946;31
2023/06/26 08:13:42;;;;;;;;;;;;;;;28.86;36.66;99691.50;1068032;54;19953;31
2023/06/26 08:15:53;;;;;;;;;;;;;;;29.06;36.36;99689.81;1069346;31;22163;31
2023/06/26 08:16:59;;;;;;;;;;;;;;;29.19;36.12;99693.97;1067996;47;20389;31
2023/06/26 08:18:03;;;;;;;;;;;;;;;29.33;35.44;99674.97;1068361;47;19946;31
2023/06/26 08:19:06;;;;;;;;;;;;;;;29.47;35.76;99683.47;1067833;54;20832;31
2023/06/26 08:20:11;;;;;;;;;;;;;;;29.64;35.58;99677.63;1068561;46;22091;31
2023/06/26 08:21:18;;;;;;;;;;;;;;;29.71;35.13;99678.97;1075275;54;22101;31
2023/06/26 08:24:32;;;;;;;;;;;;;;;29.51;34.95;99679.03;1068203;39;21231;31
2023/06/26 08:25:34;;;;;;;;;;;;;;;29.72;35.14;99677.88;1087735;47;19922;-84
2023/06/26 08:26:40;;;;;;;;;;;;;;;29.71;34.90;99678.97;1087613;54;19942;-84
2023/06/26 08:27:44;;;;;;;;;;;;;;;29.82;34.71;99673.44;1087224;54;19942;-85
2023/06/26 08:28:47;;;;;;;;;;;;;;;29.92;34.88;99672.53;1087306;47;20007;-86
2023/06/26 08:29:51;;;;;;;;;;;;;;;29.85;34.40;99675.63;1087283;54;19991;-83
2023/06/26 08:30:53;;;;;;;;;;;;;;;29.96;34.39;99676.41;1087160;47;19994;-85
2023/06/26 08:31:56;;;;;;;;;;;;;;;30.14;34.46;99669.41;1087208;47;19937;-86
2023/06/26 08:32:57;;;;;;;;;;;;;;;30.33;34.52;99673.16;1087262;47;19939;-85
2023/06/26 08:34:00;;;;;;;;;;;;;;;30.38;33.98;99668.72;1087455;39;20683;-84
2023/06/26 08:35:04;;;;;;;;;;;;;;;30.49;34.04;99662.84;1087029;54;19942;-85
2023/06/26 08:36:05;;;;;;;;;;;;;;;30.58;33.74;99674.13;1087192;54;20026;-87
2023/06/26 08:38:11;;;;;;;;;;;;;;;30.94;33.26;99665.53;1087641;46;19949;-86
2023/06/26 08:42:52;;;;;;;;;;;;;;;30.78;31.78;99666.81;1087599;54;19935;-84
2023/06/26 08:43:56;;;;;;;;;;;;;;;30.93;31.87;99661.13;1087135;46;20066;-83
2023/06/26 08:44:57;;;;;;;;;;;;;;;30.98;31.51;99664.97;1087474;39;20812;-84
2023/06/26 08:46:00;;;;;;;;;;;;;;;31.11;31.36;99658.78;1089182;39;20566;-83
2023/06/26 08:47:03;;;;;;;;;;;;;;;31.20;31.49;99659.78;1086990;47;19947;-83
2023/06/26 08:48:07;;;;;;;;;;;;;;;31.27;31.36;99656.69;1087189;54;19945;-85
2023/06/26 08:49:16;;;;;;;;;;;;;;;31.39;31.15;99659.88;1087232;46;20889;-84
2023/06/26 08:50:22;;;;;;;;;;;;;;;31.44;30.82;99656.22;1087496;47;19938;-84
2023/06/26 08:51:24;;;;;;;;;;;;;;;31.31;30.77;99657.75;1087265;46;20281;-86
2023/06/26 08:52:36;;;;;;;;;;;;;;;31.39;30.41;99659.03;1087377;47;19939;-85
2023/06/26 08:53:43;;;;;;;;;;;;;;;31.38;30.34;99658.22;1087405;47;19939;-86
2023/06/26 08:55:49;;;;;;;;;;;;;;;31.25;30.56;99654.22;1088310;54;19942;-85
2023/06/26 08:56:52;;;;;;;;;;;;;;;31.01;30.92;99661.59;1077472;54;21994;31
2023/06/26 08:58:02;;;;;;;;;;;;;;;31.11;30.75;99659.63;1079160;46;19942;-85
2023/06/26 08:59:06;;;;;;;;;;;;;;;31.19;30.86;99666.41;1087281;46;19938;-85
2023/06/26 09:00:08;;;;;;;;;;;;;;;31.47;30.74;99663.09;1087062;47;20019;-86
2023/06/26 09:01:12;;;;;;;;;;;;;;;31.45;30.39;99663.41;1087395;47;19946;-84
2023/06/26 09:03:24;;;;;;;;;;;;;;;31.73;30.19;99652.59;1088622;54;19939;-85
2023/06/26 09:05:37;;;;;;;;;;;;;;;31.77;29.87;99659.16;1087235;54;19942;-86
2023/06/26 09:08:56;;;;;;;;;;;;;;;31.94;29.75;99658.66;1087958;54;19943;-87
2023/06/26 09:11:05;;;;;;;;;;;;;;;31.85;30.01;99658.50;1086938;54;19957;-85
2023/06/26 09:12:12;;;;;;;;;;;;;;;32.04;29.70;99661.28;1074846;31;20198;31
2023/06/26 09:15:44;;;;;;;;;;;;;;;31.89;29.55;99659.56;1084677;47;20876;31
2023/06/26 09:16:47;;;;;;;;;;;;;;;31.88;29.67;99659.88;1083062;54;20074;31
2023/06/26 09:17:52;;;;;;;;;;;;;;;32.02;29.56;99662.72;1087892;54;20758;-84
2023/06/26 09:20:07;;;;;;;;;;;;;;;31.94;29.71;99657.81;1088296;54;19934;-86
2023/06/26 09:21:10;;;;;;;;;;;;;;;31.95;29.72;99660.31;1087701;47;19938;-87
2023/06/26 09:23:16;;;;;;;;;;;;;;;31.95;29.80;99653.94;1071909;54;19946;-84
2023/06/26 09:25:30;;;;;;;;;;;;;;;31.93;29.73;99659.78;1087517;54;21146;-85
2023/06/26 09:28:51;;;;;;;;;;;;;;;31.71;29.88;99660.34;1079467;54;20721;-87
2023/06/26 09:29:52;;;;;;;;;;;;;;;31.87;29.82;99659.03;1083296;46;19950;-86
2023/06/26 09:31:03;;;;;;;;;;;;;;;32.23;29.33;99662.41;1087338;47;19938;-86
2023/06/26 09:33:17;;;;;;;;;;;;;;;31.77;29.68;99669.41;1079188;54;21352;31
2023/06/26 09:34:22;;;;;;;;;;;;;;;31.78;29.80;99665.53;1072872;54;20425;31
2023/06/26 09:35:31;;;;;;;;;;;;;;;31.82;30.02;99666.56;1078418;47;20711;31
2023/06/26 09:37:51;;;;;;;;;;;;;;;31.78;30.00;99671.84;1078527;54;19997;31
2023/06/26 09:38:54;;;;;;;;;;;;;;;31.84;30.10;99665.13;1082719;54;20003;31
2023/06/26 09:43:31;;;;;;;;;;;;;;;31.45;31.29;99684.66;1086762;54;19942;31
2023/06/26 09:48:17;;;;;;;;;;;;;;;31.41;31.41;99668.66;1080654;39;20260;31
2023/06/26 09:49:28;;;;;;;;;;;;;;;31.57;31.11;99671.25;1068674;54;20988;31
2023/06/26 09:50:39;;;;;;;;;;;;;;;31.99;30.83;99672.41;1087395;46;20835;31
2023/06/26 09:51:41;;;;;;;;;;;;;;;32.28;30.39;99662.38;1067948;47;19953;31
2023/06/26 09:52:45;;;;;;;;;;;;;;;32.26;30.55;99665.41;1087697;47;20938;-84
2023/06/26 09:57:37;;;;;;;;;;;;;;;32.53;29.99;99666.69;1087716;54;19923;-84
2023/06/26 09:58:39;;;;;;;;;;;;;;;32.63;29.73;99673.97;1075924;47;21460;31
2023/06/26 10:00:57;;;;;;;;;;;;;;;32.54;30.09;99670.25;1082023;54;19927;-85
2023/06/26 10:03:23;;;;;;;;;;;;;;;31.94;30.19;99686.31;1087413;54;19939;31
2023/06/26 10:04:25;;;;;;;;;;;;;;;31.76;29.77;99679.63;1072414;47;21157;31
2023/06/26 10:05:29;;;;;;;;;;;;;;;31.81;29.98;99684.25;1092369;39;21271;-84
2023/06/26 10:08:47;;;;;;;;;;;;;;;31.37;30.52;99680.59;1071508;47;19951;31
2023/06/26 10:09:51;;;;;;;;;;;;;;;31.19;31.01;99677.47;1072977;46;20770;31
2023/06/26 10:13:33;;;;;;;;;;;;;;;31.15;31.92;99690.22;1069284;54;19956;31
2023/06/26 10:14:38;;;;;;;;;;;;;;;31.12;31.95;99701.81;1079432;47;20005;31
2023/06/26 10:16:59;;;;;;;;;;;;;;;30.67;33.09;99692.81;1076350;54;19958;-84
2023/06/26 10:19:26;;;;;;;;;;;;;;;30.58;33.34;99696.19;1088726;54;19954;-83
2023/06/26 10:22:48;;;;;;;;;;;;;;;30.33;33.76;99689.69;1087996;54;19939;-84
2023/06/26 10:23:51;;;;;;;;;;;;;;;30.54;33.56;99694.28;1071379;47;20788;31
2023/06/26 10:24:57;;;;;;;;;;;;;;;30.33;33.65;99692.44;1088646;54;19926;-85
2023/06/26 10:25:58;;;;;;;;;;;;;;;30.50;33.47;99691.25;1068499;46;19970;-88
2023/06/26 10:27:06;;;;;;;;;;;;;;;30.41;34.03;99695.72;1083348;54;19966;31
2023/06/26 10:28:09;;;;;;;;;;;;;;;30.83;33.36;99690.75;1088144;54;19954;-84
2023/06/26 10:30:20;;;;;;;;;;;;;;;31.16;33.11;99682.75;1078736;46;19962;31
2023/06/26 10:31:31;;;;;;;;;;;;;;;30.98;33.42;99681.53;1072046;54;19952;31
2023/06/26 10:33:50;;;;;;;;;;;;;;;31.50;32.51;99682.66;1088513;54;19939;-82
2023/06/26 10:38:53;;;;;;;;;;;;;;;31.97;32.33;99673.81;1080153;54;21582;-86
2023/06/26 10:40:04;;;;;;;;;;;;;;;32.33;31.94;99659.50;1087663;47;19943;-85
2023/06/26 10:42:13;;;;;;;;;;;;;;;32.10;31.96;99673.09;1083389;54;19967;-87
2023/06/26 10:44:21;;;;;;;;;;;;;;;31.54;33.30;99678.22;1079523;54;19947;31
2023/06/26 10:47:42;;;;;;;;;;;;;;;31.21;33.57;99682.72;1085933;54;19930;-84
2023/06/26 10:48:44;;;;;;;;;;;;;;;30.92;34.05;99689.03;1083952;54;19997;31
2023/06/26 10:49:50;;;;;;;;;;;;;;;30.70;34.37;99682.03;1078033;46;19931;31
2023/06/26 10:50:51;;;;;;;;;;;;;;;30.66;34.53;99686.47;1083375;54;19942;-87
2023/06/26 10:55:53;;;;;;;;;;;;;;;30.32;35.18;99685.28;1079506;46;20852;-85
2023/06/26 10:58:00;;;;;;;;;;;;;;;30.37;35.24;99678.09;1088745;54;19974;-84
2023/06/26 10:59:13;;;;;;;;;;;;;;;30.23;35.55;99678.72;1086519;47;19939;31
2023/06/26 11:00:17;;;;;;;;;;;;;;;30.16;35.71;99684.56;1072874;54;20001;-87
2023/06/26 11:01:22;;;;;;;;;;;;;;;30.28;35.75;99686.13;1082727;47;19939;31
2023/06/26 11:02:28;;;;;;;;;;;;;;;30.09;35.92;99688.75;1081324;47;19937;-86
2023/06/26 11:03:35;;;;;;;;;;;;;;;29.79;36.26;99690.50;1080172;54;19993;-84
2023/06/26 11:04:40;;;;;;;;;;;;;;;29.62;36.67;99690.84;1087972;47;19970;-84
2023/06/26 11:08:08;;;;;;;;;;;;;;;29.68;36.87;99684.22;1086552;39;20997;31
2023/06/26 11:10:27;;;;;;;;;;;;;;;29.51;37.57;99690.06;1088352;54;19942;-84
2023/06/26 11:11:42;;;;;;;;;;;;;;;29.48;37.58;99685.94;1088007;54;19926;-84
2023/06/26 11:14:59;;;;;;;;;;;;;;;29.76;37.41;99688.34;1080310;54;19974;31
2023/06/26 11:16:02;;;;;;;;;;;;;;;29.89;37.34;99690.47;1083790;54;19939;31
2023/06/26 11:17:07;;;;;;;;;;;;;;;30.01;37.21;99688.25;1084294;54;19953;-84
2023/06/26 11:18:11;;;;;;;;;;;;;;;30.25;36.82;99684.78;1087535;47;19939;-84
2023/06/26 11:19:18;;;;;;;;;;;;;;;30.22;36.90;99682.63;1084614;47;19950;-84
2023/06/26 11:20:23;;;;;;;;;;;;;;;30.06;37.20;99686.56;1071749;54;20947;-87
2023/06/26 11:21:25;;;;;;;;;;;;;;;30.10;37.02;99682.94;1074459;47;20004;31
2023/06/26 11:22:32;;;;;;;;;;;;;;;30.39;36.90;99692.44;1086492;54;19926;31
2023/06/26 11:23:41;;;;;;;;;;;;;;;30.42;36.80;99691.88;1077260;54;19947;31
2023/06/26 11:24:47;;;;;;;;;;;;;;;30.30;36.76;99684.78;1073953;47;19950;31
2023/06/26 11:27:05;;;;;;;;;;;;;;;30.49;36.11;99687.66;1080411;47;19975;-85
2023/06/26 11:32:00;;;;;;;;;;;;;;;30.69;36.31;99702.44;1083791;54;19958;-84
2023/06/26 11:33:11;;;;;;;;;;;;;;;30.68;36.37;99702.75;1082456;47;20297;-85
2023/06/26 11:34:19;;;;;;;;;;;;;;;30.62;36.15;99699.19;1082649;47;19950;-85
2023/06/26 11:39:05;;;;;;;;;;;;;;;30.30;36.00;99712.34;1070133;54;19946;31
2023/06/26 11:42:24;;;;;;;;;;;;;;;30.34;36.11;99707.06;1088053;54;19927;-84
2023/06/26 11:43:26;;;;;;;;;;;;;;;30.39;36.55;99697.94;1079222;39;21108;31
2023/06/26 11:44:35;;;;;;;;;;;;;;;30.28;36.86;99706.28;1083207;47;19950;-85
2023/06/26 11:45:37;;;;;;;;;;;;;;;30.26;37.08;99697.47;1087371;47;19922;31
2023/06/26 11:47:50;;;;;;;;;;;;;;;30.47;36.65;99709.19;1071412;54;20006;31
2023/06/26 11:48:57;;;;;;;;;;;;;;;30.60;36.62;99704.16;1071752;54;19958;31
2023/06/26 11:52:23;;;;;;;;;;;;;;;30.64;36.64;99695.03;1071265;46;19954;-84
2023/06/26 11:53:27;;;;;;;;;;;;;;;30.89;36.26;99695.13;1074676;46;20195;31
2023/06/26 11:54:37;;;;;;;;;;;;;;;30.83;36.39;99702.59;1083965;54;19966;31
2023/06/26 11:55:44;;;;;;;;;;;;;;;30.76;36.25;99697.41;1082227;47;19953;31
2023/06/26 11:59:00;;;;;;;;;;;;;;;31.09;35.76;99694.94;1075876;54;19942;-86
2023/06/26 12:01:18;;;;;;;;;;;;;;;31.19;35.81;99704.25;1071094;54;19993;31
2023/06/26 12:02:27;;;;;;;;;;;;;;;31.12;36.09;99704.59;1071531;54;19977;31
2023/06/26 12:06:59;;;;;;;;;;;;;;;30.98;36.64;99698.88;1071952;47;21031;31
2023/06/26 12:11:36;;;;;;;;;;;;;;;31.12;36.17;99693.53;1071319;54;19931;31
2023/06/26 12:12:58;;;;;;;;;;;;;;;31.20;36.00;99689.34;1075175;39;21359;31
2023/06/26 12:14:04;;;;;;;;;;;;;;;31.17;36.15;99696.28;1080104;54;20856;31
2023/06/26 12:16:19;;;;;;;;;;;;;;;31.40;35.49;99685.53;1078219;39;21429;31
2023/06/26 12:17:25;;;;;;;;;;;;;;;31.35;35.61;99680.88;1074613;39;21447;31
2023/06/26 12:24:23;;;;;;;;;;;;;;;30.96;37.05;99696.44;1089051;54;19927;-84
2023/06/26 12:26:39;;;;;;;;;;;;;;;30.69;37.41;99693.34;1071515;54;21013;31